createdAt,value
2023-05-10T00:01:34.201Z,13.10
2023-05-10T00:04:00.994Z,13.10
2023-05-10T00:06:27.823Z,13.10
2023-05-10T00:08:54.596Z,13.10
2023-05-10T00:11:23.025Z,13.10
2023-05-10T00:13:50.362Z,13.10
2023-05-10T00:16:17.138Z,13.10
2023-05-10T00:18:43.936Z,13.00
2023-05-10T00:21:10.699Z,13.00
2023-05-10T00:23:37.508Z,13.10
2023-05-10T00:26:04.755Z,13.10
2023-05-10T00:28:31.580Z,13.00
2023-05-10T00:30:58.348Z,13.10
2023-05-10T00:33:25.132Z,13.10
2023-05-10T00:35:51.949Z,13.10
2023-05-10T00:38:18.802Z,13.00
2023-05-10T00:40:45.586Z,13.00
2023-05-10T00:43:12.373Z,13.00
2023-05-10T00:45:41.074Z,13.00
2023-05-10T00:48:08.106Z,13.00
2023-05-10T00:50:35.061Z,13.00
2023-05-10T00:53:03.277Z,12.90
2023-05-10T00:55:30.184Z,12.90
2023-05-10T00:57:57.040Z,12.90
2023-05-10T01:00:23.885Z,12.80
2023-05-10T01:02:51.231Z,12.90
2023-05-10T01:05:18.256Z,12.90
2023-05-10T01:07:45.054Z,12.90
2023-05-10T01:13:57.419Z,12.80
2023-05-10T01:16:25.474Z,12.70
2023-05-10T01:18:53.052Z,12.70
2023-05-10T01:21:45.596Z,12.60
2023-05-10T01:24:36.977Z,12.50
2023-05-10T01:27:37.423Z,12.50
2023-05-10T01:30:15.981Z,12.50
2023-05-10T01:33:04.158Z,12.40
2023-05-10T01:36:09.403Z,12.40
2023-05-10T01:38:54.042Z,12.50
2023-05-10T01:41:28.261Z,12.40
2023-05-10T01:44:27.026Z,12.40
2023-05-10T01:47:07.329Z,12.40
2023-05-10T01:49:48.574Z,12.30
2023-05-10T01:52:20.243Z,12.30
2023-05-10T01:55:00.330Z,12.30
2023-05-10T01:57:28.699Z,12.20
2023-05-10T01:59:57.328Z,12.00
2023-05-10T02:02:27.078Z,11.90
2023-05-10T02:04:56.279Z,11.90
2023-05-10T02:07:24.847Z,11.80
2023-05-10T02:09:52.382Z,11.80
2023-05-10T02:12:19.875Z,11.80
2023-05-10T02:14:47.837Z,11.80
2023-05-10T02:17:15.306Z,11.70
2023-05-10T02:19:44.235Z,11.70
2023-05-10T02:22:12.426Z,11.70
2023-05-10T02:24:40.570Z,11.70
2023-05-10T02:27:08.850Z,11.70
2023-05-10T02:29:37.421Z,11.70
2023-05-10T02:32:05.201Z,11.60
2023-05-10T02:34:33.149Z,11.60
2023-05-10T02:37:01.938Z,11.50
2023-05-10T02:39:30.639Z,11.40
2023-05-10T02:41:58.591Z,11.40
2023-05-10T02:44:28.944Z,11.30
2023-05-10T02:46:57.074Z,11.30
2023-05-10T02:49:23.936Z,11.20
2023-05-10T02:51:56.415Z,11.20
2023-05-10T02:54:29.696Z,11.10
2023-05-10T02:57:00.410Z,11.10
2023-05-10T02:59:27.567Z,11.10
2023-05-10T03:01:54.640Z,11.10
2023-05-10T03:04:21.570Z,11.00
2023-05-10T03:06:48.672Z,11.00
2023-05-10T03:09:16.665Z,11.00
2023-05-10T03:11:55.463Z,11.00
2023-05-10T03:14:31.073Z,11.00
2023-05-10T03:17:08.232Z,11.00
2023-05-10T03:19:48.567Z,11.00
2023-05-10T03:22:38.032Z,11.00
2023-05-10T03:25:09.328Z,11.00
2023-05-10T03:27:40.085Z,10.90
2023-05-10T03:30:10.025Z,10.90
2023-05-10T03:32:37.191Z,10.90
2023-05-10T03:35:10.960Z,10.90
2023-05-10T03:37:37.752Z,10.90
2023-05-10T03:40:05.425Z,10.90
2023-05-10T03:42:32.189Z,10.90
2023-05-10T03:44:58.972Z,10.90
2023-05-10T03:47:26.057Z,10.90
2023-05-10T03:49:53.183Z,10.80
2023-05-10T03:52:19.915Z,10.80
2023-05-10T03:54:46.759Z,10.80
2023-05-10T03:57:13.500Z,10.80
2023-05-10T03:59:40.209Z,10.80
2023-05-10T04:02:07.234Z,10.80
2023-05-10T04:04:34.008Z,10.80
2023-05-10T04:07:00.712Z,10.80
2023-05-10T04:09:27.586Z,10.80
2023-05-10T04:11:54.291Z,10.80
2023-05-10T04:14:20.986Z,10.80
2023-05-10T04:16:47.777Z,10.90
2023-05-10T04:19:14.507Z,10.90
2023-05-10T04:21:41.433Z,10.90
2023-05-10T04:24:08.275Z,10.90
2023-05-10T04:26:35.033Z,10.90
2023-05-10T04:29:02.006Z,11.00
2023-05-10T04:31:28.949Z,11.00
2023-05-10T04:33:55.824Z,11.00
2023-05-10T04:36:22.708Z,11.00
2023-05-10T04:38:49.485Z,11.00
2023-05-10T04:41:16.229Z,11.00
2023-05-10T04:43:42.924Z,11.10
2023-05-10T04:46:09.666Z,11.10
2023-05-10T04:48:36.467Z,11.10
2023-05-10T04:51:05.025Z,11.20
2023-05-10T04:53:32.374Z,11.20
2023-05-10T04:55:59.188Z,11.20
2023-05-10T04:58:26.143Z,11.20
2023-05-10T05:00:52.849Z,11.20
2023-05-10T05:03:19.735Z,11.20
2023-05-10T05:05:46.644Z,11.30
2023-05-10T05:08:13.984Z,11.30
2023-05-10T05:10:40.991Z,11.30
2023-05-10T05:13:07.805Z,11.30
2023-05-10T05:15:34.829Z,11.30
2023-05-10T05:18:01.623Z,11.30
2023-05-10T05:20:29.030Z,11.30
2023-05-10T05:22:55.775Z,11.40
2023-05-10T05:25:22.593Z,11.40
2023-05-10T05:27:49.366Z,11.50
2023-05-10T05:30:16.722Z,11.50
2023-05-10T05:32:43.676Z,11.50
2023-05-10T05:35:10.677Z,11.50
2023-05-10T05:37:38.158Z,11.50
2023-05-10T05:40:05.459Z,11.40
2023-05-10T05:42:32.909Z,11.40
2023-05-10T05:44:59.941Z,11.50
2023-05-10T05:47:26.787Z,11.50
2023-05-10T05:49:53.516Z,11.50
2023-05-10T05:52:20.382Z,11.50
2023-05-10T05:54:47.130Z,11.60
2023-05-10T05:57:13.893Z,11.60
2023-05-10T05:59:44.762Z,11.70
2023-05-10T06:02:11.945Z,11.80
2023-05-10T06:04:39.299Z,11.90
2023-05-10T06:07:06.232Z,12.00
2023-05-10T06:09:32.989Z,12.10
2023-05-10T06:11:59.746Z,12.10
2023-05-10T06:14:26.601Z,12.10
2023-05-10T06:16:53.413Z,12.10
2023-05-10T06:19:20.149Z,12.10
2023-05-10T06:21:46.854Z,12.20
2023-05-10T06:24:13.614Z,12.10
2023-05-10T06:26:40.515Z,12.10
2023-05-10T06:29:07.207Z,12.20
2023-05-10T06:31:34.134Z,12.20
2023-05-10T06:34:01.160Z,12.20
2023-05-10T06:36:28.181Z,12.30
2023-05-10T06:38:55.143Z,12.40
2023-05-10T06:41:24.560Z,12.40
2023-05-10T06:43:51.732Z,12.50
2023-05-10T06:46:18.647Z,12.50
2023-05-10T06:48:45.680Z,12.60
2023-05-10T06:51:12.373Z,12.60
2023-05-10T06:53:39.144Z,12.60
2023-05-10T06:56:06.328Z,12.60
2023-05-10T06:58:33.797Z,12.60
2023-05-10T07:01:05.156Z,12.70
2023-05-10T07:03:32.723Z,12.80
2023-05-10T07:06:06.068Z,12.70
2023-05-10T07:08:32.968Z,12.80
2023-05-10T07:11:08.410Z,12.90
2023-05-10T07:13:36.010Z,12.80
2023-05-10T07:16:03.888Z,13.00
2023-05-10T07:18:30.706Z,13.10
2023-05-10T07:20:58.313Z,13.40
2023-05-10T07:23:25.418Z,13.50
2023-05-10T07:25:53.188Z,13.70
2023-05-10T07:28:20.400Z,13.50
2023-05-10T07:30:47.608Z,13.10
2023-05-10T07:33:15.314Z,13.10
2023-05-10T07:35:42.292Z,13.00
2023-05-10T07:38:09.145Z,13.00
2023-05-10T07:40:35.870Z,13.30
2023-05-10T07:43:03.188Z,13.50
2023-05-10T07:45:30.102Z,13.80
2023-05-10T07:47:56.986Z,13.90
2023-05-10T07:50:23.825Z,13.90
2023-05-10T07:52:50.606Z,13.80
2023-05-10T07:55:19.859Z,13.80
2023-05-10T07:57:46.614Z,13.80
2023-05-10T08:00:20.057Z,13.90
2023-05-10T08:02:47.642Z,13.90
2023-05-10T08:05:14.697Z,14.00
2023-05-10T08:07:41.630Z,13.90
2023-05-10T08:10:09.321Z,13.70
2023-05-10T08:12:36.080Z,13.70
2023-05-10T08:15:03.076Z,13.80
2023-05-10T08:17:29.845Z,13.80
2023-05-10T08:19:56.767Z,13.90
2023-05-10T08:22:23.518Z,14.00
2023-05-10T08:24:50.361Z,14.10
2023-05-10T08:27:17.134Z,14.10
2023-05-10T08:29:50.041Z,14.00
2023-05-10T08:32:17.561Z,14.00
2023-05-10T08:34:44.426Z,13.90
2023-05-10T08:37:14.201Z,13.70
2023-05-10T08:39:41.372Z,13.70
2023-05-10T08:42:10.121Z,13.80
2023-05-10T08:44:38.115Z,13.70
2023-05-10T08:47:09.480Z,13.70
2023-05-10T08:49:38.044Z,13.70
2023-05-10T08:52:06.938Z,13.70
2023-05-10T08:54:35.257Z,13.70
2023-05-10T08:57:02.401Z,13.90
2023-05-10T08:59:29.881Z,13.90
2023-05-10T09:01:59.524Z,14.00
2023-05-10T09:04:26.852Z,14.10
2023-05-10T09:06:55.447Z,14.30
2023-05-10T09:09:22.806Z,14.50
2023-05-10T09:11:49.661Z,14.50
2023-05-10T09:14:16.933Z,14.50
2023-05-10T09:16:43.957Z,14.40
2023-05-10T09:19:11.252Z,14.90
2023-05-10T09:21:39.316Z,15.10
2023-05-10T09:24:09.963Z,15.10
2023-05-10T09:26:46.365Z,15.30
2023-05-10T09:29:15.170Z,15.20
2023-05-10T09:31:57.201Z,15.50
2023-05-10T09:34:31.532Z,15.90
2023-05-10T09:37:02.056Z,15.90
2023-05-10T09:39:36.463Z,16.00
2023-05-10T09:42:08.774Z,15.80
2023-05-10T09:44:36.169Z,15.90
2023-05-10T09:47:03.651Z,16.20
2023-05-10T09:49:30.969Z,15.90
2023-05-10T09:52:03.548Z,16.00
2023-05-10T09:54:31.027Z,16.40
2023-05-10T09:56:58.067Z,16.50
2023-05-10T09:59:28.178Z,16.00
2023-05-10T10:01:58.225Z,15.70
2023-05-10T10:04:25.301Z,15.80
2023-05-10T10:07:05.521Z,15.90
2023-05-10T10:09:33.612Z,15.90
2023-05-10T10:12:01.927Z,15.80
2023-05-10T10:14:29.852Z,15.60
2023-05-10T10:17:07.692Z,15.50
2023-05-10T10:19:36.732Z,15.40
2023-05-10T10:22:03.993Z,15.40
2023-05-10T10:24:30.877Z,15.50
2023-05-10T10:27:05.651Z,15.70
2023-05-10T10:29:50.872Z,15.70
2023-05-10T10:32:27.562Z,15.50
2023-05-10T10:34:56.134Z,15.20
2023-05-10T10:37:23.030Z,15.10
2023-05-10T10:39:51.423Z,14.80
2023-05-10T10:42:57.063Z,14.60
2023-05-10T10:45:25.266Z,14.40
2023-05-10T10:48:22.502Z,14.50
2023-05-10T10:50:56.958Z,14.60
2023-05-10T10:53:23.708Z,14.50
2023-05-10T10:55:50.483Z,14.40
2023-05-10T10:58:33.198Z,14.30
2023-05-10T11:01:19.864Z,14.20
2023-05-10T11:04:10.034Z,14.10
2023-05-10T11:06:37.502Z,14.10
2023-05-10T11:09:09.435Z,14.30
2023-05-10T11:11:37.148Z,14.40
2023-05-10T11:14:06.409Z,14.30
2023-05-10T11:16:44.114Z,14.50
2023-05-10T11:19:15.235Z,14.60
2023-05-10T11:22:06.737Z,14.50
2023-05-10T11:24:34.519Z,14.60
2023-05-10T11:27:01.978Z,14.70
2023-05-10T11:29:28.819Z,14.60
2023-05-10T11:31:59.297Z,14.30
2023-05-10T11:34:28.856Z,14.40
2023-05-10T11:36:56.656Z,14.40
2023-05-10T11:39:28.547Z,14.40
2023-05-10T11:41:55.881Z,14.50
2023-05-10T11:44:22.717Z,14.60
2023-05-10T11:46:50.560Z,14.60
2023-05-10T11:49:17.413Z,14.70
2023-05-10T11:51:44.625Z,14.70
2023-05-10T11:54:12.500Z,14.50
2023-05-10T11:56:41.166Z,14.40
2023-05-10T11:59:09.052Z,14.10
2023-05-10T12:01:36.451Z,14.00
2023-05-10T12:04:03.828Z,13.90
2023-05-10T12:06:33.353Z,14.00
2023-05-10T12:09:00.637Z,14.00
2023-05-10T12:11:29.103Z,14.00
2023-05-10T12:13:57.445Z,14.10
2023-05-10T12:16:26.618Z,14.10
2023-05-10T12:18:55.080Z,14.10
2023-05-10T12:21:22.652Z,14.00
2023-05-10T12:23:52.857Z,13.90
2023-05-10T12:26:23.162Z,13.90
2023-05-10T12:28:49.950Z,13.80
2023-05-10T12:31:16.738Z,13.90
2023-05-10T12:33:45.495Z,14.00
2023-05-10T12:36:14.766Z,14.10
2023-05-10T12:38:48.788Z,14.10
2023-05-10T12:41:19.734Z,14.10
2023-05-10T12:43:47.316Z,14.00
2023-05-10T12:46:16.416Z,14.10
2023-05-10T12:48:45.021Z,14.10
2023-05-10T12:51:18.076Z,14.30
2023-05-10T12:53:49.267Z,14.50
2023-05-10T12:56:16.374Z,14.70
2023-05-10T12:58:48.915Z,14.70
2023-05-10T13:01:16.148Z,14.70
2023-05-10T13:03:44.174Z,14.50
2023-05-10T13:06:10.928Z,14.00
2023-05-10T13:08:37.684Z,13.50
2023-05-10T13:11:04.715Z,13.10
2023-05-10T13:13:31.540Z,12.60
2023-05-10T13:15:58.354Z,12.30
2023-05-10T13:18:25.636Z,12.10
2023-05-10T13:20:52.509Z,11.90
2023-05-10T13:23:19.293Z,11.80
2023-05-10T13:25:46.239Z,11.60
2023-05-10T13:28:13.002Z,11.60
2023-05-10T13:30:39.738Z,11.50
2023-05-10T13:33:06.624Z,11.50
2023-05-10T13:35:33.404Z,11.50
2023-05-10T13:38:00.251Z,11.70
2023-05-10T13:40:26.996Z,11.60
2023-05-10T13:42:54.050Z,11.70
2023-05-10T13:45:20.901Z,11.90
2023-05-10T13:47:48.128Z,11.90
2023-05-10T13:50:14.905Z,11.90
2023-05-10T13:52:41.586Z,11.90
2023-05-10T13:55:08.714Z,11.90
2023-05-10T13:57:36.757Z,11.80
2023-05-10T14:00:04.053Z,11.70
2023-05-10T14:02:30.979Z,11.60
2023-05-10T14:04:57.951Z,11.70
2023-05-10T14:07:24.629Z,11.70
2023-05-10T14:09:51.307Z,11.80
2023-05-10T14:12:18.128Z,11.90
2023-05-10T14:14:44.834Z,12.10
2023-05-10T14:17:12.483Z,12.00
2023-05-10T14:19:40.055Z,12.30
2023-05-10T14:22:06.983Z,12.30
2023-05-10T14:24:33.711Z,12.40
2023-05-10T14:27:01.198Z,12.60
2023-05-10T14:29:28.342Z,12.60
2023-05-10T14:31:55.104Z,12.90
2023-05-10T14:34:22.148Z,12.70
2023-05-10T14:36:48.854Z,12.90
2023-05-10T14:39:15.608Z,12.70
2023-05-10T14:41:43.977Z,12.80
2023-05-10T14:44:11.595Z,12.90
2023-05-10T14:46:39.128Z,12.90
2023-05-10T14:49:05.887Z,12.90
2023-05-10T14:51:32.796Z,12.90
2023-05-10T14:53:59.836Z,13.00
2023-05-10T14:56:27.123Z,13.00
2023-05-10T14:58:53.962Z,13.10
2023-05-10T15:01:21.255Z,13.20
2023-05-10T15:03:48.656Z,13.40
2023-05-10T15:06:19.232Z,13.30
2023-05-10T15:08:46.019Z,13.10
2023-05-10T15:11:12.756Z,13.10
2023-05-10T15:13:39.527Z,13.10
2023-05-10T15:16:06.508Z,13.10
2023-05-10T15:18:33.312Z,13.10
2023-05-10T15:21:00.117Z,13.10
2023-05-10T15:23:27.608Z,13.20
2023-05-10T15:25:56.672Z,13.30
2023-05-10T15:28:23.787Z,13.50
2023-05-10T15:30:50.820Z,13.30
2023-05-10T15:33:17.593Z,13.20
2023-05-10T15:35:44.421Z,13.30
2023-05-10T15:38:11.383Z,13.30
2023-05-10T15:40:38.314Z,13.30
2023-05-10T15:43:06.287Z,13.20
2023-05-10T15:45:34.074Z,13.30
2023-05-10T15:48:02.087Z,13.40
2023-05-10T15:50:29.000Z,13.60
2023-05-10T15:52:55.741Z,13.50
2023-05-10T15:55:22.494Z,13.40
2023-05-10T15:57:49.281Z,13.40
2023-05-10T16:00:17.850Z,13.40
2023-05-10T16:02:44.662Z,13.40
2023-05-10T16:05:11.577Z,13.50
2023-05-10T16:07:38.372Z,13.30
2023-05-10T16:10:06.639Z,13.20
2023-05-10T16:12:33.593Z,13.20
2023-05-10T16:15:00.292Z,13.10
2023-05-10T16:17:27.145Z,13.10
2023-05-10T16:19:53.955Z,13.00
2023-05-10T16:22:22.339Z,13.00
2023-05-10T16:24:53.570Z,12.90
2023-05-10T16:27:20.607Z,12.90
2023-05-10T16:29:48.318Z,12.90
2023-05-10T16:32:15.082Z,13.00
2023-05-10T16:34:41.837Z,13.00
2023-05-10T16:37:08.583Z,12.90
2023-05-10T16:39:35.369Z,12.90
2023-05-10T16:42:02.060Z,12.90
2023-05-10T16:44:28.977Z,13.00
2023-05-10T16:46:56.100Z,12.90
2023-05-10T16:49:25.254Z,12.90
2023-05-10T16:51:52.834Z,12.80
2023-05-10T16:54:20.748Z,12.80
2023-05-10T16:56:47.629Z,12.70
2023-05-10T16:59:14.332Z,12.70
2023-05-10T17:01:41.187Z,12.70
2023-05-10T17:04:08.364Z,12.70
2023-05-10T17:06:36.885Z,12.80
2023-05-10T17:09:04.102Z,12.80
2023-05-10T17:11:31.218Z,12.80
2023-05-10T17:13:59.651Z,12.80
2023-05-10T17:16:26.921Z,12.90
2023-05-10T17:18:53.831Z,12.80
2023-05-10T17:21:21.156Z,12.80
2023-05-10T17:23:47.985Z,12.80
2023-05-10T17:26:14.743Z,12.80
2023-05-10T17:28:41.496Z,12.70
2023-05-10T17:31:08.713Z,12.70
2023-05-10T17:33:35.439Z,12.70
2023-05-10T17:36:02.194Z,12.60
2023-05-10T17:38:28.910Z,12.50
2023-05-10T17:40:55.583Z,12.50
2023-05-10T17:43:23.482Z,12.50
2023-05-10T17:45:50.329Z,12.50
2023-05-10T17:48:17.360Z,12.40
2023-05-10T17:50:44.481Z,12.40
2023-05-10T17:53:11.317Z,12.40
2023-05-10T17:55:42.117Z,12.30
2023-05-10T17:58:11.351Z,12.30
2023-05-10T18:00:38.708Z,12.30
2023-05-10T18:03:05.844Z,12.30
2023-05-10T18:05:39.355Z,12.30
2023-05-10T18:08:07.208Z,12.20
2023-05-10T18:10:34.141Z,12.20
2023-05-10T18:13:02.483Z,12.20
2023-05-10T18:15:29.344Z,12.20
2023-05-10T18:17:56.743Z,12.20
2023-05-10T18:20:23.944Z,12.10
2023-05-10T18:22:50.801Z,12.00
2023-05-10T18:25:17.995Z,12.00
2023-05-10T18:27:44.973Z,12.00
2023-05-10T18:30:12.565Z,11.90
2023-05-10T18:32:39.798Z,11.90
2023-05-10T18:35:07.823Z,11.90
2023-05-10T18:37:35.098Z,11.90
2023-05-10T18:40:01.972Z,11.90
2023-05-10T18:42:28.875Z,11.80
2023-05-10T18:44:55.882Z,11.70
2023-05-10T18:47:22.723Z,11.80
2023-05-10T18:49:49.548Z,11.80
2023-05-10T18:52:16.381Z,11.70
2023-05-10T18:54:43.162Z,11.70
2023-05-10T18:57:09.921Z,11.70
2023-05-10T18:59:36.760Z,11.60
2023-05-10T19:02:03.652Z,11.60
2023-05-10T19:04:30.539Z,11.60
2023-05-10T19:06:57.436Z,11.60
2023-05-10T19:09:24.501Z,11.50
2023-05-10T19:11:51.863Z,11.50
2023-05-10T19:14:18.572Z,11.50
2023-05-10T19:16:45.514Z,11.40
2023-05-10T19:19:14.442Z,11.40
2023-05-10T19:21:41.262Z,11.40
2023-05-10T19:24:08.093Z,11.40
2023-05-10T19:26:35.335Z,11.40
2023-05-10T19:29:02.079Z,11.30
2023-05-10T19:31:28.852Z,11.20
2023-05-10T19:33:56.305Z,11.20
2023-05-10T19:36:24.288Z,11.20
2023-05-10T19:38:51.620Z,11.10
2023-05-10T19:41:18.629Z,11.10
2023-05-10T19:43:45.518Z,11.10
2023-05-10T19:46:13.375Z,11.10
2023-05-10T19:48:40.265Z,11.10
2023-05-10T19:51:10.007Z,11.10
2023-05-10T19:53:37.055Z,11.10
2023-05-10T19:56:06.356Z,11.10
2023-05-10T19:58:33.877Z,11.10
2023-05-10T20:01:00.976Z,11.10
2023-05-10T20:03:28.521Z,11.10
2023-05-10T20:05:55.366Z,11.10
2023-05-10T20:08:22.148Z,11.10
2023-05-10T20:10:48.901Z,11.10
2023-05-10T20:13:15.641Z,11.10
2023-05-10T20:15:42.440Z,11.10
2023-05-10T20:18:09.320Z,11.10
2023-05-10T20:20:36.118Z,11.10
2023-05-10T20:23:02.880Z,11.00
2023-05-10T20:25:29.799Z,11.00
2023-05-10T20:27:56.580Z,11.00
2023-05-10T20:30:23.325Z,11.00
2023-05-10T20:32:50.054Z,11.00
2023-05-10T20:35:17.017Z,11.00
2023-05-10T20:37:43.734Z,11.00
2023-05-10T20:40:10.983Z,11.00
2023-05-10T20:42:37.836Z,11.00
2023-05-10T20:45:04.978Z,10.90
2023-05-10T20:47:32.450Z,10.90
2023-05-10T20:49:59.215Z,10.90
2023-05-10T20:52:26.200Z,10.90
2023-05-10T20:54:52.936Z,10.90
2023-05-10T20:57:20.159Z,10.90
2023-05-10T20:59:46.950Z,10.90
2023-05-10T21:02:13.681Z,10.90
2023-05-10T21:04:40.903Z,10.90
2023-05-10T21:07:07.747Z,10.90
2023-05-10T21:09:35.476Z,10.90
2023-05-10T21:12:03.414Z,10.90
2023-05-10T21:14:30.977Z,10.90
2023-05-10T21:16:57.743Z,10.80
2023-05-10T21:19:24.460Z,10.80
2023-05-10T21:21:51.267Z,10.80
2023-05-10T21:24:18.070Z,10.80
2023-05-10T21:26:45.292Z,10.70
2023-05-10T21:29:12.052Z,10.70
2023-05-10T21:31:38.769Z,10.70
2023-05-10T21:34:05.636Z,10.70
2023-05-10T21:36:32.435Z,10.70
2023-05-10T21:38:59.172Z,10.70
2023-05-10T21:41:26.607Z,10.60
2023-05-10T21:43:53.308Z,10.60
2023-05-10T21:46:20.278Z,10.60
2023-05-10T21:48:47.088Z,10.60
2023-05-10T21:51:14.130Z,10.60
2023-05-10T21:53:40.923Z,10.60
2023-05-10T21:56:07.731Z,10.60
2023-05-10T21:58:34.543Z,10.50
2023-05-10T22:01:01.408Z,10.50
2023-05-10T22:03:28.296Z,10.50
2023-05-10T22:05:55.230Z,10.50
2023-05-10T22:08:22.048Z,10.40
2023-05-10T22:10:48.760Z,10.40
2023-05-10T22:13:15.514Z,10.40
2023-05-10T22:15:43.330Z,10.40
2023-05-10T22:18:10.330Z,10.40
2023-05-10T22:20:37.099Z,10.40
2023-05-10T22:23:03.841Z,10.30
2023-05-10T22:25:30.787Z,10.40
2023-05-10T22:27:57.578Z,10.40
2023-05-10T22:30:24.320Z,10.40
2023-05-10T22:32:51.146Z,10.30
2023-05-10T22:35:18.139Z,10.30
2023-05-10T22:37:44.832Z,10.30
2023-05-10T22:40:12.127Z,10.30
2023-05-10T22:42:38.869Z,10.30
2023-05-10T22:45:06.157Z,10.20
2023-05-10T22:47:33.603Z,10.30
2023-05-10T22:50:03.242Z,10.20
2023-05-10T22:52:30.160Z,10.20
2023-05-10T22:54:57.244Z,10.20
2023-05-10T22:57:24.517Z,10.20
2023-05-10T22:59:52.045Z,10.20
2023-05-10T23:02:19.063Z,10.20
2023-05-10T23:04:46.375Z,10.20
2023-05-10T23:07:13.104Z,10.20
2023-05-10T23:09:39.911Z,10.20
2023-05-10T23:12:06.724Z,10.20
2023-05-10T23:14:33.543Z,10.20
2023-05-10T23:17:00.542Z,10.20
2023-05-10T23:19:27.321Z,10.10
2023-05-10T23:21:54.081Z,10.10
2023-05-10T23:24:20.837Z,10.10
2023-05-10T23:26:47.578Z,10.10
2023-05-10T23:29:14.435Z,10.10
2023-05-10T23:31:45.445Z,10.10
2023-05-10T23:34:12.622Z,10.10
2023-05-10T23:36:39.429Z,10.10
2023-05-10T23:39:06.712Z,10.10
2023-05-10T23:41:33.737Z,10.10
2023-05-10T23:44:02.290Z,10.10
2023-05-10T23:46:29.197Z,10.10
2023-05-10T23:48:56.066Z,10.10
2023-05-10T23:51:22.963Z,10.10
2023-05-10T23:53:49.856Z,10.10
2023-05-10T23:56:16.541Z,10.10
2023-05-10T23:58:44.130Z,10.00
